Time;durP1;ratioP1;P1;durP2;ratioP2;P2;SDS_P1;SDS_P2;PMS_P1;PMS_P2;Temp;Humidity;BMP_temperature;BMP_pressure;BME280_temperature;BME280_humidity;BME280_pressure;Samples;Min_cycle;Max_cycle;Signal;HPM_P1;HPM_P2
2022/05/21 00:00:38;;;;;;;7.18;4.57;;;;;;;;;;5112033;28;20055;-74
2022/05/21 00:03:05;;;;;;;11.50;5.15;;;;;;;;;;5112401;28;20122;-73
2022/05/21 00:05:35;;;;;;;8.90;6.45;;;;;;;;;;5112688;28;20079;-73
2022/05/21 00:08:03;;;;;;;11.18;6.00;;;;;;;;;;5112166;28;20351;-73
2022/05/21 00:10:30;;;;;;;14.25;7.03;;;;;;;;;;5092409;28;20136;-73
2022/05/21 00:12:56;;;;;;;12.77;6.80;;;;;;;;;;5106041;28;20040;-73
2022/05/21 00:15:25;;;;;;;16.33;8.55;;;;;;;;;;5110880;28;20396;-73
2022/05/21 00:17:51;;;;;;;15.60;7.10;;;;;;;;;;5120139;27;20118;-73
2022/05/21 00:23:11;;;;;;;17.55;10.13;;;;;;;;;;5112065;28;20408;-72
2022/05/21 00:25:37;;;;;;;17.17;10.40;;;;;;;;;;5111164;28;20040;-73
2022/05/21 00:28:03;;;;;;;17.75;10.98;;;;;;;;;;5101769;28;20038;-73
2022/05/21 00:30:29;;;;;;;25.20;11.23;;;;;;;;;;5109057;27;20131;-73
2022/05/21 00:32:55;;;;;;;15.70;10.90;;;;;;;;;;5112422;28;20344;-73
2022/05/21 00:35:21;;;;;;;20.02;11.70;;;;;;;;;;5112277;28;20070;-72
2022/05/21 00:37:47;;;;;;;17.60;11.05;;;;;;;;;;5119403;27;20035;-73
2022/05/21 00:40:13;;;;;;;17.17;10.90;;;;;;;;;;5101948;28;20051;-73
2022/05/21 00:42:43;;;;;;;18.75;11.95;;;;;;;;;;5109756;28;20067;-73
2022/05/21 00:45:10;;;;;;;17.55;10.70;;;;;;;;;;5106625;28;20465;-73
2022/05/21 00:47:36;;;;;;;20.10;10.73;;;;;;;;;;5122104;27;20043;-73
2022/05/21 00:50:03;;;;;;;17.35;9.90;;;;;;;;;;5115727;27;20039;-73
2022/05/21 00:52:29;;;;;;;19.55;10.95;;;;;;;;;;5107822;28;20039;-73
2022/05/21 00:54:58;;;;;;;16.40;12.10;;;;;;;;;;5117392;27;20063;-73
2022/05/21 00:57:24;;;;;;;15.73;10.48;;;;;;;;;;5106911;28;20099;-73
2022/05/21 00:59:52;;;;;;;18.92;11.18;;;;;;;;;;5106736;28;20048;-73
2022/05/21 01:02:20;;;;;;;16.63;10.98;;;;;;;;;;5106348;28;20032;-73
2022/05/21 01:04:47;;;;;;;15.27;10.40;;;;;;;;;;5111761;28;20042;-73
2022/05/21 01:07:16;;;;;;;20.00;10.95;;;;;;;;;;5117104;27;20040;-73
2022/05/21 01:09:46;;;;;;;15.82;11.13;;;;;;;;;;5117660;27;20048;-73
2022/05/21 01:12:12;;;;;;;21.40;11.25;;;;;;;;;;5117246;27;20043;-73
2022/05/21 01:14:38;;;;;;;24.00;12.18;;;;;;;;;;5114831;27;20066;-73
2022/05/21 01:17:05;;;;;;;18.23;11.57;;;;;;;;;;5103370;28;20049;-72
2022/05/21 01:19:31;;;;;;;20.60;10.20;;;;;;;;;;5083273;28;20440;-72
2022/05/21 01:21:58;;;;;;;18.30;11.18;;;;;;;;;;5112739;27;20039;-72
2022/05/21 01:24:25;;;;;;;18.38;10.30;;;;;;;;;;5103027;27;20039;-72
2022/05/21 01:26:51;;;;;;;18.88;11.30;;;;;;;;;;5106587;27;20046;-72
2022/05/21 01:29:20;;;;;;;16.15;10.13;;;;;;;;;;5103661;27;20080;-72
2022/05/21 01:31:49;;;;;;;19.63;11.52;;;;;;;;;;5103093;28;20122;-73
2022/05/21 01:34:16;;;;;;;18.38;9.95;;;;;;;;;;5106682;28;20550;-72
2022/05/21 01:36:42;;;;;;;15.05;9.80;;;;;;;;;;5108671;28;20408;-72
2022/05/21 01:39:08;;;;;;;13.30;10.70;;;;;;;;;;5117174;27;20123;-72
2022/05/21 01:41:34;;;;;;;18.23;10.55;;;;;;;;;;5121276;27;21030;-72
2022/05/21 01:46:45;;;;;;;17.85;9.77;;;;;;;;;;5100137;27;20051;-73
2022/05/21 01:49:11;;;;;;;14.70;8.63;;;;;;;;;;5114819;27;20051;-72
2022/05/21 01:51:37;;;;;;;18.50;9.25;;;;;;;;;;5104153;28;20043;-72
2022/05/21 01:54:03;;;;;;;19.80;9.43;;;;;;;;;;5092260;28;20039;-72
2022/05/21 01:56:30;;;;;;;16.48;9.32;;;;;;;;;;5119981;27;20054;-72
2022/05/21 01:58:56;;;;;;;15.68;8.90;;;;;;;;;;5109009;27;20109;-72
2022/05/21 02:01:22;;;;;;;17.08;8.02;;;;;;;;;;5108850;28;20574;-73
2022/05/21 02:03:48;;;;;;;21.25;8.32;;;;;;;;;;5110244;28;20074;-73
2022/05/21 02:06:14;;;;;;;22.77;7.82;;;;;;;;;;5106976;28;20045;-73
2022/05/21 02:08:40;;;;;;;20.40;7.55;;;;;;;;;;5115623;27;20039;-73
2022/05/21 02:11:07;;;;;;;13.75;7.45;;;;;;;;;;5107414;28;20047;-73
2022/05/21 02:13:33;;;;;;;24.08;9.45;;;;;;;;;;5114572;27;20122;-73
2022/05/21 02:16:00;;;;;;;22.15;8.10;;;;;;;;;;5113851;28;20227;-73
2022/05/21 02:18:26;;;;;;;17.63;7.82;;;;;;;;;;5103800;28;20540;-73
2022/05/21 02:20:52;;;;;;;18.38;6.47;;;;;;;;;;5111725;28;20214;-73
2022/05/21 02:23:19;;;;;;;19.67;7.03;;;;;;;;;;5108809;28;20424;-73
2022/05/21 02:25:46;;;;;;;18.63;7.35;;;;;;;;;;5109811;28;20051;-73
2022/05/21 02:28:12;;;;;;;18.48;6.53;;;;;;;;;;5112827;28;20048;-73
2022/05/21 02:30:39;;;;;;;14.18;5.82;;;;;;;;;;5109445;28;20043;-73
2022/05/21 02:33:06;;;;;;;18.17;6.65;;;;;;;;;;5104868;28;20040;-74
2022/05/21 02:35:32;;;;;;;19.15;6.43;;;;;;;;;;5107289;28;20405;-73
2022/05/21 02:40:43;;;;;;;16.65;6.53;;;;;;;;;;5123783;27;20066;-73
2022/05/21 02:43:09;;;;;;;10.35;6.13;;;;;;;;;;5112081;27;20130;-73
2022/05/21 02:45:35;;;;;;;17.30;5.80;;;;;;;;;;5112670;28;20043;-73
2022/05/21 02:48:01;;;;;;;22.35;6.38;;;;;;;;;;5113781;28;20119;-73
2022/05/21 02:50:32;;;;;;;15.00;6.35;;;;;;;;;;5113816;28;20042;-73
2022/05/21 02:52:59;;;;;;;15.13;6.28;;;;;;;;;;5100632;28;20072;-73
2022/05/21 02:55:25;;;;;;;21.13;5.85;;;;;;;;;;5102539;28;20130;-73
2022/05/21 02:57:51;;;;;;;13.93;6.28;;;;;;;;;;5110583;28;20512;-73
2022/05/21 03:00:20;;;;;;;12.93;6.05;;;;;;;;;;5116007;27;20107;-73
2022/05/21 03:02:46;;;;;;;13.75;5.65;;;;;;;;;;5124505;27;20047;-73
2022/05/21 03:05:12;;;;;;;16.60;6.40;;;;;;;;;;5114929;27;20130;-73
2022/05/21 03:07:43;;;;;;;20.88;6.90;;;;;;;;;;5112995;28;20040;-73
2022/05/21 03:10:23;;;;;;;18.52;7.13;;;;;;;;;;5116004;27;20032;-73
2022/05/21 03:12:50;;;;;;;15.57;5.93;;;;;;;;;;5119902;27;20042;-73
2022/05/21 03:15:17;;;;;;;17.27;6.03;;;;;;;;;;5118649;27;20168;-72
2022/05/21 03:17:44;;;;;;;11.00;5.03;;;;;;;;;;5119144;27;20040;-72
2022/05/21 03:20:13;;;;;;;14.82;6.05;;;;;;;;;;5115186;27;20124;-73
2022/05/21 03:22:40;;;;;;;11.77;5.60;;;;;;;;;;5110430;28;20124;-74
2022/05/21 03:25:06;;;;;;;13.93;5.70;;;;;;;;;;5111686;28;20071;-73
2022/05/21 03:27:32;;;;;;;17.88;5.30;;;;;;;;;;5110236;28;20054;-73
2022/05/21 03:29:58;;;;;;;18.27;6.50;;;;;;;;;;5110464;27;20441;-73
2022/05/21 03:32:24;;;;;;;16.30;6.07;;;;;;;;;;5124168;27;20047;-73
2022/05/21 03:34:50;;;;;;;20.40;6.07;;;;;;;;;;5121445;27;20386;-73
2022/05/21 03:37:16;;;;;;;21.77;6.22;;;;;;;;;;5098239;28;20083;-73
2022/05/21 03:39:43;;;;;;;12.05;5.65;;;;;;;;;;5105501;27;20058;-73
2022/05/21 03:42:09;;;;;;;11.65;6.07;;;;;;;;;;5101727;27;20104;-73
2022/05/21 03:44:35;;;;;;;12.88;5.78;;;;;;;;;;5109933;28;20489;-73
2022/05/21 03:47:02;;;;;;;14.57;4.93;;;;;;;;;;5127130;27;20393;-73
2022/05/21 03:49:28;;;;;;;12.18;4.40;;;;;;;;;;5112453;27;20127;-73
2022/05/21 03:51:54;;;;;;;16.70;5.78;;;;;;;;;;5111863;28;20462;-73
2022/05/21 03:54:21;;;;;;;11.95;5.22;;;;;;;;;;5112469;28;20039;-73
2022/05/21 03:56:47;;;;;;;15.35;4.60;;;;;;;;;;5117755;27;20066;-73
2022/05/21 03:59:13;;;;;;;15.07;6.20;;;;;;;;;;5112959;27;20143;-73
2022/05/21 04:01:41;;;;;;;11.15;4.68;;;;;;;;;;5110808;28;20148;-73
2022/05/21 04:04:07;;;;;;;11.10;5.07;;;;;;;;;;5119251;27;20044;-73
2022/05/21 04:06:34;;;;;;;14.38;5.45;;;;;;;;;;5110533;28;20035;-73
2022/05/21 04:09:00;;;;;;;14.90;6.78;;;;;;;;;;5081588;27;20705;-73
2022/05/21 04:11:26;;;;;;;13.52;5.15;;;;;;;;;;5118332;27;20045;-73
2022/05/21 04:13:53;;;;;;;10.52;5.38;;;;;;;;;;5123419;27;20036;-73
2022/05/21 04:16:19;;;;;;;10.48;4.85;;;;;;;;;;5110263;28;20035;-73
2022/05/21 04:18:48;;;;;;;14.50;4.00;;;;;;;;;;5114012;27;20047;-73
2022/05/21 04:21:14;;;;;;;13.70;4.93;;;;;;;;;;5113831;27;20496;-73
2022/05/21 04:23:40;;;;;;;13.20;4.20;;;;;;;;;;5114214;27;20028;-73
2022/05/21 04:26:06;;;;;;;10.70;3.88;;;;;;;;;;5109450;28;20048;-73
2022/05/21 04:28:32;;;;;;;15.27;4.65;;;;;;;;;;5093011;28;20043;-73
2022/05/21 04:30:58;;;;;;;9.48;3.65;;;;;;;;;;5110359;28;20497;-73
2022/05/21 04:33:24;;;;;;;10.63;4.72;;;;;;;;;;5109848;28;20062;-73
2022/05/21 04:38:36;;;;;;;11.35;3.70;;;;;;;;;;5120771;27;20055;-73
2022/05/21 04:41:02;;;;;;;12.93;4.25;;;;;;;;;;5106275;28;20047;-73
2022/05/21 04:43:28;;;;;;;18.42;4.45;;;;;;;;;;5115840;27;20511;-73
2022/05/21 04:45:55;;;;;;;7.47;3.70;;;;;;;;;;5085935;28;20039;-73
2022/05/21 04:48:22;;;;;;;13.32;5.40;;;;;;;;;;5102004;27;20085;-73
2022/05/21 04:50:48;;;;;;;12.15;3.60;;;;;;;;;;5095487;27;20075;-73
2022/05/21 04:53:14;;;;;;;13.52;4.63;;;;;;;;;;5101746;27;20496;-72
2022/05/21 04:55:41;;;;;;;11.20;4.40;;;;;;;;;;5098640;27;20039;-73
2022/05/21 04:58:08;;;;;;;10.90;3.70;;;;;;;;;;5102417;27;20054;-73
2022/05/21 05:00:35;;;;;;;11.18;3.90;;;;;;;;;;5097512;28;20055;-73
2022/05/21 05:03:01;;;;;;;7.85;3.05;;;;;;;;;;5101400;27;20380;-73
2022/05/21 05:05:27;;;;;;;12.15;3.80;;;;;;;;;;5113341;27;20050;-73
2022/05/21 05:07:53;;;;;;;11.80;3.80;;;;;;;;;;5099150;27;20040;-73
2022/05/21 05:10:19;;;;;;;13.15;4.25;;;;;;;;;;5104117;27;20079;-73
2022/05/21 05:12:45;;;;;;;10.18;4.45;;;;;;;;;;5105779;27;20382;-73
2022/05/21 05:15:11;;;;;;;20.10;4.50;;;;;;;;;;5099902;27;20043;-74
2022/05/21 05:17:38;;;;;;;8.18;3.67;;;;;;;;;;5111112;27;20031;-73
2022/05/21 05:20:04;;;;;;;12.88;4.38;;;;;;;;;;5101041;27;20098;-74
2022/05/21 05:22:30;;;;;;;13.85;4.90;;;;;;;;;;5101631;27;20080;-74
2022/05/21 05:24:57;;;;;;;12.02;4.03;;;;;;;;;;5095212;27;20042;-74
2022/05/21 05:27:23;;;;;;;12.05;3.97;;;;;;;;;;5100535;27;20035;-72
2022/05/21 05:29:49;;;;;;;10.38;4.30;;;;;;;;;;5105298;27;20039;-72
2022/05/21 05:32:15;;;;;;;13.68;4.05;;;;;;;;;;5096296;27;20039;-72
2022/05/21 05:34:41;;;;;;;16.63;4.00;;;;;;;;;;5097685;27;20369;-72
2022/05/21 05:37:07;;;;;;;12.60;3.92;;;;;;;;;;5101301;27;20403;-72
2022/05/21 05:39:34;;;;;;;16.70;4.75;;;;;;;;;;5106980;28;20127;-72
2022/05/21 05:42:04;;;;;;;12.45;4.43;;;;;;;;;;5102661;28;20071;-72
2022/05/21 05:44:31;;;;;;;13.95;3.97;;;;;;;;;;5100699;28;20568;-72
2022/05/21 05:46:57;;;;;;;16.05;4.22;;;;;;;;;;5104338;28;20047;-73
2022/05/21 05:49:23;;;;;;;12.23;4.30;;;;;;;;;;5106544;27;20470;-72
2022/05/21 05:51:50;;;;;;;11.48;3.80;;;;;;;;;;5100867;27;20400;-72
2022/05/21 05:54:16;;;;;;;9.05;3.42;;;;;;;;;;5105132;27;20039;-72
2022/05/21 05:56:44;;;;;;;12.38;3.70;;;;;;;;;;5100090;28;20050;-72
2022/05/21 06:02:58;;;;;;;9.05;3.95;;;;;;;;;;5096322;27;20047;-72
2022/05/21 06:04:41;;;;;;;11.48;4.55;;;;;;;;;;5099973;27;20156;-72
2022/05/21 06:07:11;;;;;;;20.02;4.80;;;;;;;;;;5109690;28;20035;-72
2022/05/21 06:09:38;;;;;;;14.15;3.72;;;;;;;;;;5105241;27;20039;-72
2022/05/21 06:12:04;;;;;;;10.35;4.22;;;;;;;;;;5103741;28;20098;-72
2022/05/21 06:14:30;;;;;;;17.02;5.25;;;;;;;;;;5096557;28;20134;-72
2022/05/21 06:16:56;;;;;;;13.00;4.88;;;;;;;;;;5103899;28;20437;-72
2022/05/21 06:19:22;;;;;;;13.38;6.15;;;;;;;;;;5110450;28;20250;-72
2022/05/21 06:21:48;;;;;;;10.90;4.78;;;;;;;;;;5100878;27;20108;-72
2022/05/21 06:24:14;;;;;;;12.38;4.03;;;;;;;;;;5097400;28;20782;-72
2022/05/21 06:26:40;;;;;;;11.25;4.25;;;;;;;;;;5094868;28;20101;-72
2022/05/21 06:29:06;;;;;;;13.00;4.63;;;;;;;;;;5096971;28;20040;-72
2022/05/21 06:31:33;;;;;;;10.68;3.83;;;;;;;;;;5100415;28;20051;-72
2022/05/21 06:33:59;;;;;;;15.40;4.53;;;;;;;;;;5103261;28;20492;-72
2022/05/21 06:36:27;;;;;;;8.18;4.72;;;;;;;;;;5087802;28;20043;-72
2022/05/21 06:38:53;;;;;;;9.35;3.55;;;;;;;;;;5107270;27;20042;-72
2022/05/21 06:41:19;;;;;;;12.68;4.15;;;;;;;;;;5101043;28;20032;-72
2022/05/21 06:43:45;;;;;;;12.45;4.38;;;;;;;;;;5104012;28;20044;-72
2022/05/21 06:46:11;;;;;;;11.50;4.70;;;;;;;;;;5099451;28;20051;-72
2022/05/21 06:48:38;;;;;;;12.10;4.38;;;;;;;;;;5104010;28;20188;-72
2022/05/21 06:51:07;;;;;;;11.23;3.90;;;;;;;;;;5109568;28;20505;-72
2022/05/21 06:53:35;;;;;;;11.93;4.55;;;;;;;;;;5100256;28;20046;-72
2022/05/21 06:56:05;;;;;;;16.02;4.32;;;;;;;;;;5091856;28;20346;-73
2022/05/21 06:58:31;;;;;;;11.05;3.72;;;;;;;;;;5102978;28;20574;-72
2022/05/21 07:00:57;;;;;;;13.40;4.93;;;;;;;;;;5100966;28;20055;-72
2022/05/21 07:03:23;;;;;;;12.18;4.40;;;;;;;;;;5104824;28;20036;-72
2022/05/21 07:08:34;;;;;;;21.60;5.25;;;;;;;;;;5098415;28;20421;-73
2022/05/21 07:11:00;;;;;;;9.23;3.63;;;;;;;;;;5105907;28;20123;-72
2022/05/21 07:13:28;;;;;;;11.18;4.60;;;;;;;;;;5104400;28;20599;-73
2022/05/21 07:15:54;;;;;;;11.57;3.97;;;;;;;;;;5103594;28;20477;-72
2022/05/21 07:18:21;;;;;;;15.45;5.25;;;;;;;;;;5098312;28;20040;-72
2022/05/21 07:20:48;;;;;;;11.20;3.85;;;;;;;;;;5100524;28;20039;-72
2022/05/21 07:23:14;;;;;;;7.45;3.92;;;;;;;;;;5103797;28;20080;-73
2022/05/21 07:25:40;;;;;;;8.85;3.35;;;;;;;;;;5115362;27;20104;-72
2022/05/21 07:28:07;;;;;;;7.75;3.65;;;;;;;;;;5103835;28;20485;-73
2022/05/21 07:30:34;;;;;;;14.20;4.43;;;;;;;;;;5107413;27;20047;-72
2022/05/21 07:33:00;;;;;;;12.98;4.30;;;;;;;;;;5107700;28;20039;-73
2022/05/21 07:35:27;;;;;;;11.65;4.38;;;;;;;;;;5113058;27;20036;-73
2022/05/21 07:37:53;;;;;;;9.77;3.65;;;;;;;;;;5108151;27;20047;-73
2022/05/21 07:40:21;;;;;;;10.57;4.05;;;;;;;;;;5108131;28;20505;-73
2022/05/21 07:42:47;;;;;;;12.60;3.70;;;;;;;;;;5102203;27;20039;-73
2022/05/21 07:45:14;;;;;;;15.50;4.45;;;;;;;;;;5100150;27;20042;-73
2022/05/21 07:47:40;;;;;;;9.45;3.60;;;;;;;;;;5107625;27;20318;-73
2022/05/21 07:50:07;;;;;;;10.43;4.25;;;;;;;;;;5099170;28;20039;-73
2022/05/21 07:52:34;;;;;;;9.82;3.80;;;;;;;;;;5109008;28;20075;-73
2022/05/21 07:55:00;;;;;;;11.85;4.72;;;;;;;;;;5106284;28;20043;-73
2022/05/21 07:57:26;;;;;;;7.93;3.20;;;;;;;;;;5109026;27;20039;-73
2022/05/21 07:59:53;;;;;;;10.48;4.68;;;;;;;;;;5106053;28;20048;-73
2022/05/21 08:02:20;;;;;;;12.70;4.95;;;;;;;;;;5108551;28;20047;-73
2022/05/21 08:04:47;;;;;;;7.70;3.83;;;;;;;;;;5102834;28;20481;-73
2022/05/21 08:07:14;;;;;;;9.60;3.90;;;;;;;;;;5110430;27;20043;-73
2022/05/21 08:09:41;;;;;;;12.07;3.65;;;;;;;;;;5109290;28;20031;-73
2022/05/21 08:12:08;;;;;;;10.00;3.22;;;;;;;;;;5092119;28;20040;-72
2022/05/21 08:14:34;;;;;;;8.02;4.03;;;;;;;;;;5107125;28;20109;-73
2022/05/21 08:17:01;;;;;;;10.63;3.67;;;;;;;;;;5108420;28;20039;-73
2022/05/21 08:19:27;;;;;;;17.92;4.90;;;;;;;;;;5115454;27;20046;-73
2022/05/21 08:26:56;;;;;;;13.88;4.47;;;;;;;;;;5108122;28;20501;-73
2022/05/21 08:27:29;;;;;;;11.23;3.33;;;;;;;;;;5077541;27;20134;-73
2022/05/21 08:29:55;;;;;;;12.77;4.70;;;;;;;;;;5107826;28;20518;-73
2022/05/21 08:32:21;;;;;;;6.05;3.17;;;;;;;;;;5108696;28;20046;-73
2022/05/21 08:34:47;;;;;;;9.48;3.58;;;;;;;;;;5108368;27;20043;-73
2022/05/21 08:37:13;;;;;;;14.32;3.70;;;;;;;;;;5103746;28;20358;-73
2022/05/21 08:39:40;;;;;;;12.52;3.58;;;;;;;;;;5111965;27;20040;-73
2022/05/21 08:42:16;;;;;;;7.63;3.15;;;;;;;;;;5097784;28;20516;-73
2022/05/21 08:44:49;;;;;;;9.20;3.17;;;;;;;;;;5107678;27;20112;-73
2022/05/21 08:47:30;;;;;;;11.02;4.85;;;;;;;;;;5107454;28;20420;-73
2022/05/21 08:50:01;;;;;;;9.93;4.13;;;;;;;;;;5108394;28;20284;-73
2022/05/21 08:52:46;;;;;;;12.57;3.60;;;;;;;;;;5100097;27;20494;-74
2022/05/21 08:55:16;;;;;;;15.25;3.97;;;;;;;;;;5107104;27;20115;-73
2022/05/21 08:57:55;;;;;;;9.73;2.53;;;;;;;;;;5108812;27;20527;-72
2022/05/21 09:00:21;;;;;;;16.38;4.57;;;;;;;;;;5106509;27;20047;-72
2022/05/21 09:02:47;;;;;;;8.88;4.15;;;;;;;;;;5106158;28;20044;-72
2022/05/21 09:05:15;;;;;;;8.05;4.07;;;;;;;;;;5103690;28;20032;-72
2022/05/21 09:08:02;;;;;;;8.77;3.72;;;;;;;;;;5104261;27;20040;-72
2022/05/21 09:10:36;;;;;;;14.75;3.65;;;;;;;;;;5102083;28;20126;-72
2022/05/21 09:13:15;;;;;;;8.48;3.30;;;;;;;;;;5100741;28;20054;-73
2022/05/21 09:18:29;;;;;;;16.23;3.60;;;;;;;;;;5098679;28;20071;-72
2022/05/21 09:21:00;;;;;;;7.55;2.55;;;;;;;;;;5102216;27;20044;-72
2022/05/21 09:23:45;;;;;;;10.13;3.67;;;;;;;;;;5093354;27;20040;-73
2022/05/21 09:26:12;;;;;;;8.05;3.40;;;;;;;;;;5101510;27;20050;-73
2022/05/21 09:28:39;;;;;;;9.48;3.00;;;;;;;;;;5087516;28;20065;-72
2022/05/21 09:31:06;;;;;;;12.18;2.72;;;;;;;;;;5102274;28;20039;-72
2022/05/21 09:33:37;;;;;;;10.15;3.05;;;;;;;;;;5097772;27;20052;-72
2022/05/21 09:36:03;;;;;;;12.43;4.40;;;;;;;;;;5101039;27;20036;-72
2022/05/21 09:38:48;;;;;;;15.63;4.57;;;;;;;;;;5092241;28;20046;-72
2022/05/21 09:41:19;;;;;;;13.90;3.75;;;;;;;;;;5100481;27;20119;-72
2022/05/21 09:47:15;;;;;;;10.80;3.83;;;;;;;;;;5040105;28;20071;-72
2022/05/21 09:49:42;;;;;;;10.32;3.45;;;;;;;;;;5099537;28;20500;-73
2022/05/21 09:52:20;;;;;;;7.97;2.50;;;;;;;;;;5108002;27;20075;-72
2022/05/21 09:54:47;;;;;;;8.80;2.78;;;;;;;;;;5098135;28;20525;-72
2022/05/21 09:57:25;;;;;;;12.07;3.97;;;;;;;;;;5109351;27;20143;-72
2022/05/21 10:00:20;;;;;;;6.85;2.63;;;;;;;;;;5112299;27;20124;-73
2022/05/21 10:02:48;;;;;;;8.50;3.13;;;;;;;;;;5103904;28;20106;-72
2022/05/21 10:05:17;;;;;;;8.35;3.80;;;;;;;;;;5113342;27;20047;-73
2022/05/21 10:10:59;;;;;;;8.60;3.55;;;;;;;;;;5102296;28;20425;-71
2022/05/21 10:13:46;;;;;;;7.75;3.35;;;;;;;;;;5101943;28;20085;-72
2022/05/21 10:16:25;;;;;;;7.63;3.67;;;;;;;;;;5094204;28;20084;-71
2022/05/21 10:19:05;;;;;;;8.48;4.20;;;;;;;;;;5101981;28;20047;-70
2022/05/21 10:21:41;;;;;;;11.88;3.85;;;;;;;;;;5106413;28;20051;-70
2022/05/21 10:24:27;;;;;;;8.57;2.97;;;;;;;;;;5081996;28;20051;-70
2022/05/21 10:27:07;;;;;;;5.40;2.45;;;;;;;;;;5104676;28;20039;-71
2022/05/21 10:29:40;;;;;;;11.57;4.07;;;;;;;;;;5107852;28;20051;-70
2022/05/21 10:32:25;;;;;;;14.18;3.95;;;;;;;;;;5108591;28;20040;-70
2022/05/21 10:34:51;;;;;;;13.73;3.70;;;;;;;;;;5096249;28;20165;-70
2022/05/21 10:37:23;;;;;;;17.38;3.17;;;;;;;;;;5099853;28;20588;-70
2022/05/21 10:40:07;;;;;;;10.32;3.90;;;;;;;;;;5104150;28;20067;-70
2022/05/21 10:42:36;;;;;;;11.63;3.38;;;;;;;;;;5101906;28;20046;-70
2022/05/21 10:45:02;;;;;;;10.40;3.20;;;;;;;;;;5105187;28;20485;-70
2022/05/21 10:47:38;;;;;;;8.48;2.72;;;;;;;;;;5107076;28;20116;-70
2022/05/21 10:50:04;;;;;;;9.00;4.30;;;;;;;;;;5106180;28;20451;-70
2022/05/21 10:52:44;;;;;;;12.27;3.35;;;;;;;;;;5105946;28;20035;-70
2022/05/21 10:55:14;;;;;;;7.43;3.08;;;;;;;;;;5094820;28;20083;-70
2022/05/21 10:58:00;;;;;;;14.32;2.92;;;;;;;;;;5102634;28;20489;-70
2022/05/21 11:00:39;;;;;;;11.70;3.65;;;;;;;;;;5052987;27;20126;-70
2022/05/21 11:03:22;;;;;;;16.38;4.65;;;;;;;;;;5106634;27;20044;-70
2022/05/21 11:05:54;;;;;;;7.25;3.42;;;;;;;;;;5109576;28;20138;-70
2022/05/21 11:08:21;;;;;;;11.68;3.42;;;;;;;;;;5105354;28;20334;-69
2022/05/21 11:10:59;;;;;;;8.18;3.67;;;;;;;;;;5106010;27;20044;-70
2022/05/21 11:13:35;;;;;;;11.35;3.75;;;;;;;;;;5099352;27;20044;-70
2022/05/21 11:16:04;;;;;;;9.88;3.25;;;;;;;;;;5110287;27;20122;-70
2022/05/21 11:18:30;;;;;;;6.97;3.50;;;;;;;;;;5113480;27;20050;-69
2022/05/21 11:20:56;;;;;;;9.70;3.17;;;;;;;;;;5095484;27;20032;-70
2022/05/21 11:23:30;;;;;;;12.77;3.45;;;;;;;;;;5098966;28;20039;-70
2022/05/21 11:25:58;;;;;;;6.53;3.13;;;;;;;;;;5107656;27;20071;-70
2022/05/21 11:28:43;;;;;;;14.07;4.65;;;;;;;;;;5103514;27;20039;-69
2022/05/21 11:39:46;;;;;;;9.45;2.80;;;;;;;;;;5103323;27;20043;-70
2022/05/21 11:42:14;;;;;;;13.10;3.88;;;;;;;;;;5095658;28;20541;-70
2022/05/21 11:44:55;;;;;;;7.97;2.78;;;;;;;;;;5107337;27;20513;-70
2022/05/21 11:47:21;;;;;;;10.23;3.95;;;;;;;;;;5089281;27;20525;-70
2022/05/21 11:49:51;;;;;;;10.80;2.85;;;;;;;;;;5107443;28;20093;-69
2022/05/21 11:52:26;;;;;;;7.30;2.65;;;;;;;;;;5106111;27;20447;-71
2022/05/21 11:54:52;;;;;;;7.53;3.10;;;;;;;;;;5111444;28;20625;-70
2022/05/21 11:57:32;;;;;;;8.38;2.83;;;;;;;;;;5109706;28;20122;-70
2022/05/21 11:59:59;;;;;;;11.23;4.03;;;;;;;;;;5106206;28;20576;-70
2022/05/21 12:02:27;;;;;;;6.60;2.40;;;;;;;;;;5093804;28;20074;-70
2022/05/21 12:04:55;;;;;;;6.47;2.95;;;;;;;;;;5097392;27;20401;-70
2022/05/21 12:07:40;;;;;;;6.95;3.13;;;;;;;;;;5100448;27;20032;-70
2022/05/21 12:10:12;;;;;;;6.00;3.05;;;;;;;;;;5100921;28;20119;-70
2022/05/21 12:12:58;;;;;;;9.43;2.72;;;;;;;;;;5107654;27;20573;-70
2022/05/21 12:15:46;;;;;;;7.70;2.97;;;;;;;;;;5102073;27;20629;-70
2022/05/21 12:18:31;;;;;;;5.53;2.30;;;;;;;;;;5080457;28;20110;-70
2022/05/21 12:20:57;;;;;;;9.25;2.97;;;;;;;;;;5094952;28;20155;-70
2022/05/21 12:23:32;;;;;;;6.78;3.10;;;;;;;;;;5097408;27;20040;-70
2022/05/21 12:25:58;;;;;;;7.07;3.40;;;;;;;;;;5105007;27;20145;-70
2022/05/21 12:28:31;;;;;;;8.07;2.65;;;;;;;;;;5106558;27;20047;-69
2022/05/21 12:31:07;;;;;;;8.98;3.90;;;;;;;;;;5103681;27;20049;-70
2022/05/21 12:33:38;;;;;;;8.85;3.05;;;;;;;;;;5105992;27;20059;-70
2022/05/21 12:36:13;;;;;;;5.68;2.72;;;;;;;;;;5100548;27;20039;-70
2022/05/21 12:38:43;;;;;;;14.25;4.05;;;;;;;;;;5108697;28;20031;-70
2022/05/21 12:41:26;;;;;;;6.00;2.80;;;;;;;;;;5107885;28;20569;-70
2022/05/21 12:43:53;;;;;;;6.00;2.35;;;;;;;;;;5117593;27;20051;-70
2022/05/21 12:46:20;;;;;;;9.23;3.10;;;;;;;;;;5113313;28;20125;-70
2022/05/21 12:48:46;;;;;;;10.23;3.80;;;;;;;;;;5106922;28;20143;-70
2022/05/21 12:51:21;;;;;;;10.93;3.13;;;;;;;;;;5116764;27;20051;-70
2022/05/21 12:53:49;;;;;;;6.75;2.88;;;;;;;;;;5125974;27;20039;-71
2022/05/21 12:56:27;;;;;;;7.93;3.15;;;;;;;;;;5110392;27;20465;-69
2022/05/21 12:59:20;;;;;;;11.23;3.88;;;;;;;;;;5108470;27;20052;-71
2022/05/21 13:02:05;;;;;;;8.05;3.42;;;;;;;;;;5109368;28;20103;-70
2022/05/21 13:04:42;;;;;;;8.23;2.42;;;;;;;;;;5096320;27;20036;-70
2022/05/21 13:07:16;;;;;;;8.18;2.33;;;;;;;;;;5104080;28;20052;-70
2022/05/21 13:09:54;;;;;;;10.13;2.97;;;;;;;;;;5118445;27;20039;-70
2022/05/21 13:12:21;;;;;;;12.18;3.05;;;;;;;;;;5115607;27;20186;-70
2022/05/21 13:14:48;;;;;;;12.00;2.33;;;;;;;;;;5115511;27;20081;-70
2022/05/21 13:17:38;;;;;;;10.52;2.72;;;;;;;;;;5110023;28;20048;-71
2022/05/21 13:20:10;;;;;;;7.55;2.50;;;;;;;;;;5101498;27;20047;-70
2022/05/21 13:22:55;;;;;;;11.43;2.75;;;;;;;;;;5109973;27;20044;-70
2022/05/21 13:25:22;;;;;;;11.93;3.13;;;;;;;;;;5110784;28;20039;-70
2022/05/21 13:27:55;;;;;;;6.55;3.00;;;;;;;;;;5107776;28;20040;-70
2022/05/21 13:30:21;;;;;;;;;;;;;;;;;;5110285;28;20561;-70
2022/05/21 13:32:54;;;;;;;6.53;2.75;;;;;;;;;;5110263;28;19928;-70
2022/05/21 13:35:23;;;;;;;8.27;3.17;;;;;;;;;;5105307;28;20126;-70
2022/05/21 13:37:50;;;;;;;7.18;2.90;;;;;;;;;;5121953;27;20577;-71
2022/05/21 13:40:26;;;;;;;7.15;3.22;;;;;;;;;;5110848;27;20134;-70
2022/05/21 13:42:54;;;;;;;8.25;2.40;;;;;;;;;;5091369;28;20097;-70
2022/05/21 13:45:28;;;;;;;8.75;3.42;;;;;;;;;;5111680;27;20429;-70
2022/05/21 13:47:59;;;;;;;5.97;2.50;;;;;;;;;;5120272;27;20149;-70
2022/05/21 13:50:28;;;;;;;6.95;3.00;;;;;;;;;;5105603;28;20032;-70
2022/05/21 13:52:54;;;;;;;17.40;4.07;;;;;;;;;;5109170;28;20040;-70
2022/05/21 13:55:20;;;;;;;8.95;2.95;;;;;;;;;;5080357;27;20038;-70
2022/05/21 13:57:47;;;;;;;13.45;3.78;;;;;;;;;;5095671;27;20051;-70
2022/05/21 14:00:20;;;;;;;9.68;2.88;;;;;;;;;;5094872;28;20475;-70
2022/05/21 14:02:49;;;;;;;12.60;2.93;;;;;;;;;;5101106;28;20039;-70
2022/05/21 14:05:32;;;;;;;10.68;3.53;;;;;;;;;;5090725;27;20305;-70
2022/05/21 14:08:01;;;;;;;7.07;3.22;;;;;;;;;;5101474;28;20071;-70
2022/05/21 14:10:36;;;;;;;10.35;3.00;;;;;;;;;;5103152;27;20036;-70
2022/05/21 14:13:05;;;;;;;9.32;3.25;;;;;;;;;;5086458;28;20035;-70
2022/05/21 14:15:34;;;;;;;11.05;3.53;;;;;;;;;;5096134;28;20043;-70
2022/05/21 14:18:03;;;;;;;10.25;2.90;;;;;;;;;;5099791;28;20051;-70
2022/05/21 14:20:39;;;;;;;7.00;2.70;;;;;;;;;;5086221;28;20068;-70
2022/05/21 14:23:25;;;;;;;15.15;4.60;;;;;;;;;;5095813;28;20036;-70
2022/05/21 14:26:09;;;;;;;7.28;3.40;;;;;;;;;;5094314;28;20258;-70
2022/05/21 14:28:35;;;;;;;9.60;3.30;;;;;;;;;;5100553;28;20109;-70
2022/05/21 14:31:19;;;;;;;7.95;2.97;;;;;;;;;;5100841;28;20051;-70
2022/05/21 14:33:57;;;;;;;8.70;3.15;;;;;;;;;;5095504;28;20036;-70
2022/05/21 14:36:25;;;;;;;9.55;3.70;;;;;;;;;;5101265;27;20046;-70
2022/05/21 14:38:51;;;;;;;6.65;2.67;;;;;;;;;;5105969;27;20500;-70
2022/05/21 14:41:28;;;;;;;10.82;3.03;;;;;;;;;;5099211;28;20334;-70
2022/05/21 14:43:55;;;;;;;8.13;2.85;;;;;;;;;;5102868;28;20058;-71
2022/05/21 14:49:06;;;;;;;6.93;3.15;;;;;;;;;;5107878;27;20047;-71
2022/05/21 14:54:17;;;;;;;8.50;3.45;;;;;;;;;;5097425;27;20416;-70
2022/05/21 14:56:43;;;;;;;8.20;3.45;;;;;;;;;;5096472;27;20050;-70
2022/05/21 14:59:09;;;;;;;8.65;3.53;;;;;;;;;;5100306;27;20131;-70
2022/05/21 15:01:36;;;;;;;6.82;2.53;;;;;;;;;;5101835;28;20064;-70
2022/05/21 15:04:02;;;;;;;8.32;4.05;;;;;;;;;;5106836;27;20044;-70
2022/05/21 15:06:34;;;;;;;9.23;3.58;;;;;;;;;;5109967;27;20051;-70
2022/05/21 15:09:02;;;;;;;11.13;3.40;;;;;;;;;;5105923;27;20039;-70
2022/05/21 15:11:29;;;;;;;8.35;2.78;;;;;;;;;;5111493;28;20071;-70
2022/05/21 15:13:55;;;;;;;6.63;2.72;;;;;;;;;;5121466;27;20139;-70
2022/05/21 15:16:22;;;;;;;7.28;3.20;;;;;;;;;;5108078;27;20080;-70
2022/05/21 15:18:48;;;;;;;10.73;3.65;;;;;;;;;;5097968;27;20489;-70
2022/05/21 15:21:23;;;;;;;9.65;2.83;;;;;;;;;;5102071;27;20032;-71
2022/05/21 15:23:49;;;;;;;10.25;2.45;;;;;;;;;;5107458;27;20035;-70
2022/05/21 15:26:15;;;;;;;6.72;2.30;;;;;;;;;;5104852;27;20040;-71
2022/05/21 15:28:42;;;;;;;9.10;2.67;;;;;;;;;;5106141;27;20048;-71